Time;durP1;ratioP1;P1;durP2;ratioP2;P2;SDS_P1;SDS_P2;PMS_P1;PMS_P2;Temp;Humidity;BMP_temperature;BMP_pressure;BME280_temperature;BME280_humidity;BME280_pressure;Samples;Min_cycle;Max_cycle;Signal;HPM_P1;HPM_P2
2022/01/25 00:08:23;;;;;;;7.60;4.00;;;;;;;-9.24;74.13;100195.13;105152;1271;75035;-23
2022/01/25 00:15:48;;;;;;;9.20;5.30;;;;;;;-9.82;76.43;100192.73;105136;1271;73049;-24
2022/01/25 00:26:39;;;;;;;8.40;5.50;;;;;;;-9.47;75.19;100174.71;105142;1271;61127;-22
2022/01/25 00:29:15;;;;;;;8.60;4.80;;;;;;;-9.39;74.90;100182.11;105017;1271;76090;-24
2022/01/25 00:31:43;;;;;;;6.50;3.70;;;;;;;-9.33;74.43;100181.02;105159;1271;74598;-24
2022/01/25 00:34:12;;;;;;;14.40;5.60;;;;;;;-9.75;75.34;100180.75;105101;1271;74532;-22
2022/01/25 00:36:40;;;;;;;7.80;4.80;;;;;;;-10.18;77.03;100174.69;104929;1271;61134;-23
2022/01/25 00:39:08;;;;;;;7.20;3.80;;;;;;;-10.23;77.79;100180.80;104776;1271;61877;-23
2022/01/25 00:41:37;;;;;;;6.70;3.70;;;;;;;-9.73;76.79;100174.39;104954;1271;75636;-23
2022/01/25 00:44:06;;;;;;;10.50;5.10;;;;;;;-9.26;74.52;100176.43;104746;1271;75960;-23
2022/01/25 00:46:35;;;;;;;8.20;4.30;;;;;;;-9.38;74.76;100169.50;104840;1271;74498;-23
2022/01/25 00:49:04;;;;;;;7.00;4.80;;;;;;;-9.51;75.25;100164.39;104785;1271;61524;-23
2022/01/25 00:54:30;;;;;;;9.60;5.40;;;;;;;-9.87;76.89;100160.37;105183;1271;73774;-23
2022/01/25 00:56:59;;;;;;;11.00;6.30;;;;;;;-9.98;77.04;100153.59;105143;1271;76025;-23
2022/01/25 00:59:31;;;;;;;10.50;6.20;;;;;;;-9.99;77.90;100147.36;105135;1271;73285;-23
2022/01/25 01:02:01;;;;;;;5.00;3.80;;;;;;;-9.52;75.78;100142.01;105000;1271;61119;-23
2022/01/25 01:05:11;;;;;;;4.10;3.20;;;;;;;-9.29;74.33;100136.18;101929;1307;601304;-23
2022/01/25 01:07:41;;;;;;;6.80;4.50;;;;;;;-9.16;74.20;100133.69;104489;1284;61141;-24
2022/01/25 01:10:29;;;;;;;13.20;6.30;;;;;;;-9.46;74.78;100121.94;104463;1283;61433;-24
2022/01/25 01:13:36;;;;;;;9.20;4.50;;;;;;;-9.65;75.83;100120.77;104509;1282;74119;-24
2022/01/25 01:16:27;;;;;;;5.70;3.70;;;;;;;-10.00;77.39;100120.29;104480;1282;75954;-24
2022/01/25 01:40:47;;;;;;;25.60;13.40;;;;;;;-8.97;75.10;100139.39;105083;1268;74478;-25
2022/01/25 01:45:53;;;;;;;22.20;12.60;;;;;;;-9.53;76.01;100121.46;105301;1268;73362;-25
2022/01/25 01:48:29;;;;;;;22.20;11.30;;;;;;;-9.61;75.68;100115.45;105142;1268;61112;-24
2022/01/25 01:51:07;;;;;;;22.30;9.70;;;;;;;-9.78;76.62;100108.27;105152;1268;61123;-25
2022/01/25 01:53:35;;;;;;;23.70;13.50;;;;;;;-10.05;77.49;100101.71;105215;1268;74804;-24
2022/01/25 01:56:04;;;;;;;30.80;15.90;;;;;;;-10.30;78.58;100099.86;105407;1268;76337;-22
2022/01/25 01:58:36;;;;;;;28.50;13.20;;;;;;;-9.94;77.90;100101.91;105388;1268;74756;-22
2022/01/25 02:01:06;;;;;;;24.90;12.10;;;;;;;-9.58;76.27;100101.54;105129;1272;61086;-23
2022/01/25 02:03:35;;;;;;;22.50;11.20;;;;;;;-9.51;75.88;100100.15;105185;1268;62359;-23
2022/01/25 02:06:03;;;;;;;26.10;14.50;;;;;;;-9.73;75.94;100103.98;105383;1268;74852;-22
2022/01/25 02:08:32;;;;;;;22.20;11.00;;;;;;;-10.17;78.01;100095.60;105113;1271;76062;-22
2022/01/25 02:11:02;;;;;;;23.50;12.80;;;;;;;-10.42;79.34;100095.64;105160;1269;74369;-22
2022/01/25 02:13:30;;;;;;;16.20;8.70;;;;;;;-10.58;80.21;100090.79;105133;1269;62040;-23
2022/01/25 02:16:02;;;;;;;21.70;9.60;;;;;;;-10.18;79.00;100091.71;105385;1268;61098;-24
2022/01/25 02:24:15;;;;;;;24.20;11.00;;;;;;;-9.62;76.25;100085.67;104464;1272;75169;-23
2022/01/25 02:26:43;;;;;;;12.10;6.60;;;;;;;-9.75;76.45;100077.06;104996;1271;61141;-24
2022/01/25 02:29:12;;;;;;;9.70;4.00;;;;;;;-9.70;76.24;100070.91;104916;1271;61249;-24
2022/01/25 02:31:40;;;;;;;6.40;3.60;;;;;;;-9.77;76.25;100065.61;105278;1271;74929;-25
2022/01/25 02:34:09;;;;;;;12.10;6.50;;;;;;;-9.65;76.54;100058.72;105013;1271;74777;-24
2022/01/25 02:36:37;;;;;;;5.10;3.20;;;;;;;-8.96;74.65;100054.56;105115;1271;74334;-23
2022/01/25 02:39:05;;;;;;;16.60;9.40;;;;;;;-8.72;72.67;100050.85;105287;1271;61838;-23
2022/01/25 02:41:34;;;;;;;15.60;8.10;;;;;;;-9.58;74.96;100043.04;105119;1271;61973;-23
2022/01/25 02:44:04;;;;;;;7.80;4.70;;;;;;;-9.34;74.63;100049.48;105328;1271;73924;-23
2022/01/25 02:49:04;;;;;;;8.20;4.90;;;;;;;-9.83;76.52;100041.63;105331;1271;73155;-24
2022/01/25 02:51:38;;;;;;;7.40;3.40;;;;;;;-9.83;76.70;100033.55;105094;1274;61346;-23
2022/01/25 02:54:08;;;;;;;11.60;6.80;;;;;;;-9.45;76.23;100032.48;104844;1272;61092;-23
2022/01/25 02:56:37;;;;;;;10.80;7.10;;;;;;;-8.76;73.57;100025.40;105310;1271;75107;-23
2022/01/25 02:59:06;;;;;;;16.40;8.60;;;;;;;-8.74;72.39;100020.19;105211;1271;75834;-23
2022/01/25 03:01:34;;;;;;;7.80;4.20;;;;;;;-8.99;73.56;100022.73;105182;1271;74604;-23
2022/01/25 03:04:04;;;;;;;8.40;4.20;;;;;;;-9.14;73.86;100016.30;104993;1271;61063;-23
2022/01/25 03:06:32;;;;;;;5.50;3.00;;;;;;;-9.34;74.60;100019.88;104909;1270;62070;-23
2022/01/25 03:09:01;;;;;;;6.90;4.50;;;;;;;-9.54;75.60;100018.55;105459;1271;74805;-23
2022/01/25 03:11:29;;;;;;;6.70;3.30;;;;;;;-9.85;77.23;100019.39;105413;1271;76357;-23
2022/01/25 03:14:01;;;;;;;6.00;3.80;;;;;;;-9.38;76.46;100017.61;105267;1271;72912;-24
2022/01/25 03:19:03;;;;;;;14.20;7.10;;;;;;;-8.69;73.14;99997.34;105160;1271;62121;-23
2022/01/25 03:24:00;;;;;;;13.30;8.10;;;;;;;-9.44;75.42;99991.80;105429;1271;75746;-23
2022/01/25 03:26:28;;;;;;;10.20;5.90;;;;;;;-9.76;76.83;99995.68;105427;1271;74404;-23
2022/01/25 03:28:57;;;;;;;6.90;4.70;;;;;;;-9.69;77.05;99994.77;105409;1271;61146;-23
2022/01/25 03:31:25;;;;;;;9.60;5.70;;;;;;;-9.77;77.59;99990.12;105359;1271;61051;-23
2022/01/25 03:33:53;;;;;;;10.90;5.60;;;;;;;-9.44;76.50;99992.48;105405;1269;73712;-23
2022/01/25 03:36:21;;;;;;;11.20;6.10;;;;;;;-8.71;74.45;99985.55;105160;1271;76002;-23
2022/01/25 03:38:50;;;;;;;8.50;4.60;;;;;;;-8.65;73.49;99983.09;105354;1271;74356;-23
2022/01/25 03:41:18;;;;;;;8.80;5.60;;;;;;;-9.03;74.59;99982.13;105419;1270;61044;-24
2022/01/25 03:43:53;;;;;;;11.20;5.40;;;;;;;-9.09;74.52;99978.33;105304;1271;62157;-23
2022/01/25 03:46:36;;;;;;;8.20;4.70;;;;;;;-9.50;76.02;99976.42;105140;1271;74834;-25
2022/01/25 03:51:51;;;;;;;8.20;3.70;;;;;;;-9.41;76.37;99976.38;105385;1271;73238;-24
2022/01/25 03:54:20;;;;;;;7.90;3.30;;;;;;;-8.54;74.63;99967.35;105380;1271;61245;-24
2022/01/25 03:56:48;;;;;;;9.30;4.80;;;;;;;-7.90;72.20;99967.64;105384;1270;61103;-24
2022/01/25 03:59:17;;;;;;;9.10;4.90;;;;;;;-7.83;71.02;99968.89;105348;1270;74848;-24
2022/01/25 04:01:45;;;;;;;6.20;3.50;;;;;;;-7.99;70.86;99971.27;105483;1271;76082;-24
2022/01/25 04:04:14;;;;;;;9.40;4.90;;;;;;;-8.37;71.72;99961.48;105232;1271;74427;-24
2022/01/25 04:06:48;;;;;;;6.00;3.10;;;;;;;-8.63;72.45;99963.75;105246;1271;60917;-24
2022/01/25 04:09:16;;;;;;;10.60;5.20;;;;;;;-9.06;74.17;99966.42;105303;1271;61021;-24
2022/01/25 04:11:45;;;;;;;6.40;3.00;;;;;;;-9.38;75.58;99961.45;105315;1271;74694;-24
2022/01/25 04:14:13;;;;;;;6.40;3.00;;;;;;;-9.12;75.35;99955.08;105278;1271;75871;-24
2022/01/25 04:16:55;;;;;;;10.00;4.10;;;;;;;-8.20;72.87;99955.41;105103;1271;73138;-24
2022/01/25 04:19:42;;;;;;;5.00;2.90;;;;;;;-7.89;70.85;99960.23;105142;1271;61082;-24
2022/01/25 04:25:05;;;;;;;5.20;3.20;;;;;;;-8.38;71.22;99952.20;104977;1271;73922;-24
2022/01/25 04:27:34;;;;;;;5.70;3.40;;;;;;;-8.63;71.84;99951.62;105095;1271;76004;-24
2022/01/25 04:30:04;;;;;;;6.40;3.10;;;;;;;-8.84;72.54;99952.06;105321;1271;74262;-23
2022/01/25 04:32:35;;;;;;;4.20;2.30;;;;;;;-9.05;73.00;99949.60;105118;1272;61321;-24
2022/01/25 04:35:09;;;;;;;4.90;1.80;;;;;;;-8.97;73.29;99946.17;105023;1271;62124;-24
2022/01/25 04:49:11;;;;;;;6.80;4.40;;;;;;;-8.76;72.35;99937.52;105319;1271;61346;-24
2022/01/25 04:51:51;;;;;;;2.20;1.40;;;;;;;-9.02;73.25;99934.52;105291;1271;74989;-23
2022/01/25 04:57:01;;;;;;;4.30;2.20;;;;;;;-8.76;73.64;99936.14;105013;1271;74698;-24
2022/01/25 04:59:38;;;;;;;4.50;1.90;;;;;;;-7.91;71.86;99942.00;105091;1271;61306;-24
2022/01/25 05:02:30;;;;;;;7.00;3.90;;;;;;;-7.94;70.51;99930.54;104977;1271;61694;-22
2022/01/25 05:05:02;;;;;;;5.30;3.40;;;;;;;-8.23;70.96;99927.74;105123;1271;73783;-23
2022/01/25 05:10:08;;;;;;;5.80;3.60;;;;;;;-9.03;73.56;99919.35;105267;1271;72890;-23
2022/01/25 05:15:49;;;;;;;3.30;2.20;;;;;;;-9.40;74.70;99919.05;105090;1271;61077;-23
2022/01/25 05:18:25;;;;;;;5.40;2.30;;;;;;;-8.58;73.59;99910.58;104999;1271;73017;-22
2022/01/25 05:23:40;;;;;;;7.40;3.00;;;;;;;-8.02;70.57;99894.89;105112;1271;72598;-23
2022/01/25 05:26:08;;;;;;;4.50;3.40;;;;;;;-8.44;71.37;99885.45;105009;1271;62578;-23
2022/01/25 05:28:37;;;;;;;4.30;3.10;;;;;;;-8.76;72.06;99874.70;104791;1271;61159;-23
2022/01/25 05:31:06;;;;;;;10.10;7.50;;;;;;;-9.15;73.29;99870.23;104902;1271;75361;-22
2022/01/25 05:33:34;;;;;;;3.20;2.60;;;;;;;-9.38;74.16;99866.09;104890;1271;75886;-24
2022/01/25 05:36:02;;;;;;;11.50;4.40;;;;;;;-9.22;74.62;99862.59;104883;1271;74309;-23
2022/01/25 05:38:31;;;;;;;3.00;2.80;;;;;;;-8.49;72.95;99864.69;104949;1271;61189;-23
2022/01/25 05:41:02;;;;;;;2.60;2.10;;;;;;;-8.22;71.82;99865.41;104975;1271;61018;-23
2022/01/25 05:46:11;;;;;;;6.30;3.90;;;;;;;-8.37;71.59;99857.04;104920;1271;72428;-23
2022/01/25 05:48:40;;;;;;;2.60;2.20;;;;;;;-8.70;72.36;99849.52;104931;1271;74466;-23
2022/01/25 05:51:10;;;;;;;4.80;3.90;;;;;;;-9.06;73.78;99847.47;104998;1270;61222;-23
2022/01/25 05:53:40;;;;;;;7.40;4.10;;;;;;;-9.33;74.95;99851.20;104713;1272;61043;-22
2022/01/25 05:56:09;;;;;;;3.50;1.80;;;;;;;-9.10;75.10;99851.12;104972;1271;74494;-23
2022/01/25 05:58:37;;;;;;;4.30;2.70;;;;;;;-8.28;72.84;99861.83;105086;1271;73321;-23
2022/01/25 06:01:05;;;;;;;5.00;2.40;;;;;;;-8.08;71.41;99860.81;105320;1271;74144;-23
2022/01/25 06:03:34;;;;;;;3.90;2.50;;;;;;;-8.22;71.70;99858.34;105316;1271;61420;-23
2022/01/25 06:06:02;;;;;;;4.60;3.20;;;;;;;-8.60;72.51;99853.34;105204;1271;61127;-22
2022/01/25 06:08:31;;;;;;;2.70;2.20;;;;;;;-8.76;73.36;99852.50;105147;1271;74696;-23
2022/01/25 06:11:00;;;;;;;3.00;2.60;;;;;;;-9.03;74.08;99849.69;105114;1272;75951;-21
2022/01/25 06:13:28;;;;;;;7.10;4.10;;;;;;;-9.21;74.91;99843.92;105356;1272;74432;-23
2022/01/25 06:15:57;;;;;;;5.80;3.50;;;;;;;-9.11;75.44;99837.65;105363;1271;63431;-25
2022/01/25 06:18:25;;;;;;;9.40;5.10;;;;;;;-8.29;73.12;99841.60;105051;1271;61051;-24
2022/01/25 06:20:54;;;;;;;4.50;1.90;;;;;;;-7.77;71.24;99844.33;104908;1271;74704;-24
2022/01/25 06:23:22;;;;;;;2.30;2.10;;;;;;;-7.88;70.58;99840.71;105084;1271;76002;-24
2022/01/25 06:25:50;;;;;;;5.10;3.40;;;;;;;-8.27;71.40;99838.08;105346;1270;74759;-26
2022/01/25 06:28:19;;;;;;;5.40;3.10;;;;;;;-8.64;72.57;99833.92;105343;1271;61063;-25
2022/01/25 06:30:48;;;;;;;5.60;3.10;;;;;;;-8.85;73.03;99834.21;105417;1271;62030;-24
2022/01/25 06:33:19;;;;;;;4.30;2.80;;;;;;;-9.27;74.56;99835.96;105417;1271;74249;-24
2022/01/25 06:35:48;;;;;;;7.50;4.30;;;;;;;-9.30;75.37;99832.89;105316;1271;75690;-24
2022/01/25 06:38:16;;;;;;;4.00;3.00;;;;;;;-8.68;73.82;99828.30;105386;1271;73430;-24
2022/01/25 06:40:45;;;;;;;10.90;4.80;;;;;;;-7.88;71.44;99823.02;105337;1271;61099;-23
2022/01/25 06:43:13;;;;;;;11.10;6.40;;;;;;;-7.91;70.51;99822.14;105384;1271;61039;-23
2022/01/25 06:45:44;;;;;;;10.20;6.30;;;;;;;-8.34;71.01;99819.15;105384;1271;73863;-22
2022/01/25 06:48:13;;;;;;;9.50;4.70;;;;;;;-8.49;71.13;99813.64;105394;1272;75992;-23
2022/01/25 06:50:41;;;;;;;8.30;4.60;;;;;;;-8.78;72.42;99810.38;105405;1270;73174;-22
2022/01/25 06:53:10;;;;;;;3.30;2.60;;;;;;;-8.84;72.93;99802.27;105178;1271;61034;-22
2022/01/25 06:55:40;;;;;;;13.60;8.00;;;;;;;-9.12;73.63;99795.73;105303;1271;62036;-23
2022/01/25 06:58:08;;;;;;;9.20;4.10;;;;;;;-8.96;73.89;99796.24;105414;1270;75699;-23
2022/01/25 07:00:36;;;;;;;8.60;4.50;;;;;;;-8.02;71.90;99793.77;105145;1271;76005;-23
2022/01/25 07:03:05;;;;;;;17.90;7.30;;;;;;;-7.69;69.60;99792.08;105117;1271;73225;-24
2022/01/25 07:05:34;;;;;;;21.60;10.90;;;;;;;-8.13;69.86;99784.44;104929;1271;61147;-23
2022/01/25 07:08:22;;;;;;;8.20;5.20;;;;;;;-8.40;70.82;99781.05;105069;1271;61082;-23
2022/01/25 07:10:54;;;;;;;6.50;4.80;;;;;;;-8.65;71.77;99780.55;105146;1271;75734;-23
2022/01/25 07:13:22;;;;;;;8.60;5.50;;;;;;;-8.82;72.16;99773.81;104920;1271;75023;-23
2022/01/25 07:15:50;;;;;;;7.30;2.30;;;;;;;-8.96;72.98;99773.52;104844;1271;72118;-24
2022/01/25 07:18:19;;;;;;;10.50;6.10;;;;;;;-8.91;73.35;99770.88;104883;1271;62878;-23
2022/01/25 07:20:47;;;;;;;3.70;3.40;;;;;;;-8.09;71.59;99772.48;104884;1271;62155;-24
2022/01/25 07:23:15;;;;;;;13.30;7.60;;;;;;;-7.73;69.39;99765.77;105151;1271;75226;-22
2022/01/25 07:25:44;;;;;;;11.70;7.20;;;;;;;-7.72;68.99;99761.56;104906;1271;75102;-22
2022/01/25 07:28:12;;;;;;;10.30;5.10;;;;;;;-7.89;69.25;99752.20;104917;1271;73366;-25
2022/01/25 07:30:41;;;;;;;9.90;5.90;;;;;;;-7.95;69.32;99748.81;105039;1270;60962;-24
2022/01/25 07:33:10;;;;;;;22.90;11.60;;;;;;;-8.12;69.75;99740.29;105022;1271;61043;-25
2022/01/25 07:35:45;;;;;;;13.70;6.10;;;;;;;-8.36;70.52;99733.06;105213;1271;75260;-24
2022/01/25 07:38:20;;;;;;;8.70;6.70;;;;;;;-8.60;71.59;99726.54;105271;1271;75848;-24
2022/01/25 07:41:00;;;;;;;13.70;7.40;;;;;;;-8.65;72.14;99723.80;105108;1271;74449;-24
2022/01/25 07:43:29;;;;;;;4.40;3.30;;;;;;;-7.75;70.55;99727.98;104974;1271;61153;-24
2022/01/25 07:45:59;;;;;;;5.10;3.00;;;;;;;-7.17;67.95;99725.29;104905;1271;61987;-24
2022/01/25 07:48:40;;;;;;;9.90;5.10;;;;;;;-7.09;67.23;99729.52;104837;1271;75859;-24
2022/01/25 07:51:12;;;;;;;4.70;3.50;;;;;;;-7.36;67.40;99718.84;104926;1271;75763;-24
2022/01/25 07:53:41;;;;;;;12.50;7.00;;;;;;;-7.74;68.08;99715.02;104924;1271;74213;-24
2022/01/25 07:56:09;;;;;;;10.20;6.00;;;;;;;-8.22;69.80;99701.80;104970;1271;61019;-23
2022/01/25 07:58:38;;;;;;;8.60;5.20;;;;;;;-8.48;70.67;99702.86;105208;1272;61889;-24
2022/01/25 08:01:08;;;;;;;9.10;4.80;;;;;;;-8.50;71.06;99708.74;105194;1271;75552;-24
2022/01/25 08:03:37;;;;;;;4.50;2.80;;;;;;;-8.46;72.00;99701.35;105097;1272;76389;-24
2022/01/25 08:06:21;;;;;;;5.70;3.80;;;;;;;-7.76;70.57;99704.88;105168;1271;74567;-24
2022/01/25 08:08:56;;;;;;;7.70;6.00;;;;;;;-7.12;67.84;99700.83;105200;1271;60939;-24
2022/01/25 08:11:28;;;;;;;5.20;3.20;;;;;;;-6.94;67.32;99699.83;105210;1271;61079;-24
2022/01/25 08:14:14;;;;;;;5.80;5.20;;;;;;;-7.19;67.18;99702.17;105120;1271;75408;-24
2022/01/25 08:16:48;;;;;;;6.20;4.30;;;;;;;-7.65;68.77;99697.67;105080;1272;75984;-24
2022/01/25 08:19:22;;;;;;;12.90;7.90;;;;;;;-7.55;68.90;99701.41;105109;1271;74317;-24
2022/01/25 08:21:54;;;;;;;8.60;5.00;;;;;;;-7.78;69.15;99698.14;104923;1271;61247;-24
2022/01/25 08:24:26;;;;;;;11.50;6.60;;;;;;;-7.92;70.00;99692.52;104938;1271;61135;-24
2022/01/25 08:26:55;;;;;;;8.20;4.50;;;;;;;-7.78;69.90;99694.77;104938;1271;75465;-24
2022/01/25 08:29:30;;;;;;;13.60;7.40;;;;;;;-7.70;69.82;99691.77;104803;1271;76165;-24
2022/01/25 08:32:13;;;;;;;7.60;5.60;;;;;;;-7.61;69.59;99691.29;104797;1271;74145;-24
2022/01/25 08:34:58;;;;;;;13.30;6.00;;;;;;;-6.94;68.31;99686.15;104898;1271;61125;-23
2022/01/25 08:37:27;;;;;;;12.80;6.70;;;;;;;-6.46;66.74;99683.08;104994;1271;61797;-23
2022/01/25 08:39:56;;;;;;;9.00;4.10;;;;;;;-6.25;66.34;99682.35;104791;1271;75541;-23
2022/01/25 08:42:25;;;;;;;3.20;2.30;;;;;;;-6.22;66.30;99678.29;104962;1271;75288;-23
2022/01/25 08:44:56;;;;;;;12.40;6.90;;;;;;;-6.46;65.97;99674.11;104906;1271;74616;-23
2022/01/25 08:47:25;;;;;;;7.50;4.20;;;;;;;-6.88;66.67;99673.31;104813;1271;60985;-23
2022/01/25 08:49:57;;;;;;;7.10;4.80;;;;;;;-7.28;68.22;99669.09;104975;1271;62135;-23
2022/01/25 08:52:27;;;;;;;10.50;4.60;;;;;;;-7.39;68.93;99668.55;105027;1271;74647;-23
2022/01/25 08:55:15;;;;;;;9.40;4.60;;;;;;;-7.46;69.30;99666.17;105151;1269;75797;-23
2022/01/25 08:57:45;;;;;;;5.50;4.10;;;;;;;-7.50;69.57;99663.64;105144;1271;75290;-23
2022/01/25 09:00:30;;;;;;;11.30;7.00;;;;;;;-7.74;70.27;99661.73;105002;1271;61143;-23
2022/01/25 09:03:12;;;;;;;8.00;4.20;;;;;;;-7.63;70.46;99659.23;105057;1271;61029;-23
2022/01/25 09:05:43;;;;;;;12.00;4.20;;;;;;;-7.26;70.35;99654.05;104861;1272;74126;-23
2022/01/25 09:08:19;;;;;;;13.80;4.20;;;;;;;-6.38;67.34;99649.93;104977;1271;75975;-23
2022/01/25 09:10:50;;;;;;;7.00;3.20;;;;;;;-6.16;66.38;99648.70;104986;1271;74445;-22
2022/01/25 09:13:19;;;;;;;9.10;5.40;;;;;;;-6.24;66.42;99641.10;104851;1271;61271;-23
2022/01/25 09:15:48;;;;;;;15.80;7.40;;;;;;;-6.17;66.93;99642.27;105314;1270;61992;-23
2022/01/25 09:18:16;;;;;;;11.70;6.80;;;;;;;-6.10;66.59;99638.85;105218;1270;74570;-23
2022/01/25 09:20:45;;;;;;;7.90;4.90;;;;;;;-6.35;66.67;99633.54;104966;1271;75794;-23
2022/01/25 09:23:18;;;;;;;7.60;5.30;;;;;;;-6.69;68.05;99630.08;104834;1271;74392;-23
2022/01/25 09:25:48;;;;;;;6.50;4.00;;;;;;;-6.86;68.98;99628.40;104988;1270;61539;-23
2022/01/25 09:28:17;;;;;;;7.50;4.50;;;;;;;-6.98;69.00;99624.20;104086;1271;1003399;-23
2022/01/25 09:30:46;;;;;;;5.90;4.30;;;;;;;-7.11;69.95;99623.87;105339;1271;75503;-22
2022/01/25 09:33:21;;;;;;;10.80;5.80;;;;;;;-7.07;69.82;99619.82;105194;1270;76046;-23
2022/01/25 09:35:50;;;;;;;8.70;4.40;;;;;;;-7.10;70.19;99619.65;104966;1274;74431;-23
2022/01/25 09:38:18;;;;;;;13.60;6.30;;;;;;;-7.20;70.37;99614.75;104943;1273;61497;-23
2022/01/25 09:40:47;;;;;;;14.60;7.30;;;;;;;-7.16;70.81;99610.52;104895;1271;61191;-23
2022/01/25 09:43:16;;;;;;;9.60;5.20;;;;;;;-7.10;70.70;99608.00;104892;1271;75702;-22
2022/01/25 09:45:45;;;;;;;16.00;7.50;;;;;;;-7.13;71.04;99601.08;104986;1271;74962;-23
2022/01/25 09:48:14;;;;;;;15.00;7.90;;;;;;;-6.79;71.05;99600.17;104840;1271;74729;-23
2022/01/25 09:50:42;;;;;;;9.00;5.00;;;;;;;-5.85;69.21;99598.63;104971;1271;61222;-23
2022/01/25 09:53:11;;;;;;;9.10;6.00;;;;;;;-5.42;66.85;99594.98;105432;1269;61008;-23
2022/01/25 09:55:41;;;;;;;11.20;7.50;;;;;;;-5.36;66.45;99592.73;105341;1271;75555;-23
2022/01/25 09:58:12;;;;;;;11.50;5.40;;;;;;;-5.59;66.83;99588.16;104971;1271;74480;-23
2022/01/25 10:00:43;;;;;;;15.40;7.20;;;;;;;-5.80;67.57;99584.23;104845;1271;73786;-23
2022/01/25 10:03:21;;;;;;;8.80;6.10;;;;;;;-6.03;67.86;99578.45;104829;1270;61014;-23
2022/01/25 10:05:50;;;;;;;9.60;5.50;;;;;;;-6.31;68.90;99574.88;104838;1271;61187;-23
2022/01/25 10:08:20;;;;;;;9.00;5.30;;;;;;;-6.38;69.94;99575.41;105006;1270;74183;-23
2022/01/25 10:10:52;;;;;;;15.00;8.20;;;;;;;-6.48;70.00;99574.95;104811;1271;77149;-23
2022/01/25 10:13:31;;;;;;;8.30;5.00;;;;;;;-6.34;69.72;99572.53;104977;1271;74153;-23
2022/01/25 10:16:00;;;;;;;15.40;7.40;;;;;;;-6.24;69.71;99569.62;104867;1271;61153;-23
2022/01/25 10:18:48;;;;;;;12.30;5.80;;;;;;;-6.21;70.22;99565.72;104976;1271;61135;-23
2022/01/25 10:21:20;;;;;;;7.10;3.70;;;;;;;-6.19;69.74;99562.33;105163;1271;74116;-23
2022/01/25 10:24:29;;;;;;;7.10;4.40;;;;;;;-6.21;69.61;99560.31;104861;1271;75943;-23
2022/01/25 10:27:01;;;;;;;10.40;4.70;;;;;;;-6.30;70.22;99555.95;104643;1277;72871;-23
2022/01/25 10:29:34;;;;;;;11.30;5.20;;;;;;;-5.66;69.73;99554.70;104467;1278;61196;-23
2022/01/25 10:32:05;;;;;;;10.20;5.60;;;;;;;-4.68;68.26;99556.55;104505;1278;62234;-23
2022/01/25 10:34:41;;;;;;;7.50;4.40;;;;;;;-4.31;66.90;99546.11;104469;1280;73843;-23
2022/01/25 10:37:14;;;;;;;7.90;4.60;;;;;;;-4.57;66.13;99539.83;104447;1278;75209;-23
2022/01/25 10:39:44;;;;;;;12.00;6.80;;;;;;;-4.96;67.01;99535.48;104462;1281;74578;-24
2022/01/25 10:42:21;;;;;;;13.80;7.10;;;;;;;-5.11;67.72;99528.52;104590;1277;61227;-23
2022/01/25 10:44:54;;;;;;;12.20;7.70;;;;;;;-5.22;68.70;99524.06;104473;1280;62438;-23
2022/01/25 10:47:38;;;;;;;16.30;7.00;;;;;;;-5.38;69.22;99517.95;104616;1278;75544;-23
2022/01/25 10:50:23;;;;;;;12.10;7.00;;;;;;;-5.63;69.81;99512.39;104665;1277;75684;-24
2022/01/25 10:53:10;;;;;;;14.90;8.50;;;;;;;-5.62;70.05;99506.97;104610;1277;74383;-23
2022/01/25 10:55:40;;;;;;;12.40;7.60;;;;;;;-5.80;70.18;99497.30;104578;1277;61262;-23
2022/01/25 10:58:09;;;;;;;18.20;9.10;;;;;;;-5.97;71.41;99497.24;104779;1274;61146;-23
2022/01/25 11:00:42;;;;;;;12.60;6.70;;;;;;;-5.96;71.96;99496.23;105414;1271;74515;-23
2022/01/25 11:03:11;;;;;;;11.30;5.50;;;;;;;-6.03;72.61;99494.10;105178;1271;75779;-22
2022/01/25 11:05:41;;;;;;;10.00;5.80;;;;;;;-5.76;72.05;99488.81;104852;1272;74457;-22
2022/01/25 11:08:18;;;;;;;15.40;4.80;;;;;;;-5.02;70.18;99486.78;105010;1271;61023;-22
2022/01/25 11:10:53;;;;;;;8.50;4.90;;;;;;;-4.54;69.33;99481.14;105211;1271;61851;-24
2022/01/25 11:16:00;;;;;;;8.00;5.60;;;;;;;-4.62;69.00;99465.31;104982;1271;73376;-23
2022/01/25 11:18:31;;;;;;;9.30;4.30;;;;;;;-4.59;68.63;99453.91;104749;1271;71366;-24
2022/01/25 11:21:01;;;;;;;9.50;5.10;;;;;;;-4.65;68.88;99449.25;105110;1271;61642;-24
2022/01/25 11:23:34;;;;;;;18.70;8.20;;;;;;;-4.77;69.22;99442.11;105155;1271;61829;-24
2022/01/25 11:26:05;;;;;;;9.30;5.10;;;;;;;-4.83;69.97;99442.36;105091;1271;75762;-25
2022/01/25 11:28:38;;;;;;;12.70;7.40;;;;;;;-4.93;70.05;99447.23;105192;1272;75458;-25
2022/01/25 11:31:14;;;;;;;12.10;7.10;;;;;;;-4.97;70.33;99445.41;105145;1271;74562;-23
2022/01/25 11:33:44;;;;;;;17.70;10.10;;;;;;;-5.02;70.94;99442.07;105113;1272;61148;-23
2022/01/25 11:36:12;;;;;;;15.70;8.50;;;;;;;-5.03;70.79;99435.82;105069;1271;61119;-23
2022/01/25 11:38:43;;;;;;;15.10;8.10;;;;;;;-5.08;71.41;99431.98;105357;1271;75467;-23
2022/01/25 11:41:13;;;;;;;19.60;8.40;;;;;;;-5.17;72.26;99426.50;105119;1271;75734;-23
2022/01/25 11:43:42;;;;;;;22.90;9.80;;;;;;;-5.26;72.74;99424.22;105132;1271;74444;-23
2022/01/25 11:46:11;;;;;;;13.70;6.60;;;;;;;-5.27;73.40;99424.05;105135;1271;61093;-23
2022/01/25 11:48:44;;;;;;;17.70;8.80;;;;;;;-4.72;72.71;99416.80;105351;1271;61750;-23
2022/01/25 11:51:17;;;;;;;24.30;9.90;;;;;;;-3.86;70.00;99418.09;105072;1270;75574;-23
2022/01/25 11:53:47;;;;;;;22.40;10.10;;;;;;;-3.73;68.70;99408.38;105159;1271;76333;-23
2022/01/25 11:56:16;;;;;;;7.70;5.00;;;;;;;-3.93;69.07;99402.61;105078;1271;73879;-23
2022/01/25 11:58:55;;;;;;;19.50;10.60;;;;;;;-4.13;69.76;99406.15;105208;1271;61738;-23
2022/01/25 12:01:24;;;;;;;15.80;8.60;;;;;;;-4.29;70.74;99400.45;105129;1271;61149;-23
2022/01/25 12:03:58;;;;;;;20.20;9.20;;;;;;;-4.48;71.75;99396.52;105104;1271;74593;-23
2022/01/25 12:06:32;;;;;;;15.40;7.60;;;;;;;-4.58;72.04;99395.11;104905;1271;76051;-23
2022/01/25 12:09:31;;;;;;;18.70;9.90;;;;;;;-4.71;72.70;99390.70;105087;1271;74760;-23
2022/01/25 12:12:07;;;;;;;17.60;9.20;;;;;;;-4.79;73.46;99386.73;105135;1271;61224;-23
2022/01/25 12:14:41;;;;;;;13.40;7.10;;;;;;;-4.80;74.11;99386.41;105033;1271;61217;-23
2022/01/25 12:17:12;;;;;;;19.90;9.10;;;;;;;-4.78;74.24;99383.52;105134;1271;76065;-23
2022/01/25 12:19:51;;;;;;;16.90;8.60;;;;;;;-4.78;74.27;99384.19;104842;1271;76019;-23
2022/01/25 12:22:26;;;;;;;16.30;8.30;;;;;;;-4.78;74.78;99383.00;105119;1270;74256;-23
2022/01/25 12:25:06;;;;;;;18.90;8.70;;;;;;;-4.20;73.15;99375.04;105175;1271;61161;-23
2022/01/25 12:27:51;;;;;;;17.90;8.70;;;;;;;-3.48;71.02;99369.39;105047;1271;60966;-23
2022/01/25 12:30:28;;;;;;;22.70;12.10;;;;;;;-3.55;70.57;99364.95;105087;1271;75755;-23
2022/01/25 12:33:15;;;;;;;18.70;9.30;;;;;;;-3.70;71.08;99360.13;104947;1271;74458;-23
2022/01/25 12:36:02;;;;;;;15.80;7.20;;;;;;;-3.96;71.97;99357.54;105109;1271;74367;-23
2022/01/25 12:38:38;;;;;;;18.10;8.70;;;;;;;-4.11;73.04;99355.91;105131;1271;61114;-23
2022/01/25 12:41:08;;;;;;;19.60;8.70;;;;;;;-4.11;73.08;99356.60;105178;1271;61116;-23
2022/01/25 12:43:40;;;;;;;13.90;8.20;;;;;;;-4.07;72.77;99352.64;105151;1271;74794;-23
2022/01/25 12:46:18;;;;;;;18.70;9.60;;;;;;;-4.16;73.54;99347.86;105115;1271;76098;-23
2022/01/25 12:48:52;;;;;;;16.10;8.20;;;;;;;-4.32;73.81;99351.66;105150;1271;73112;-23
2022/01/25 12:51:25;;;;;;;13.10;6.80;;;;;;;-4.37;74.36;99351.08;105053;1271;61856;-23
2022/01/25 12:53:55;;;;;;;16.70;8.90;;;;;;;-4.47;75.00;99352.59;105139;1271;61784;-23
2022/01/25 12:56:29;;;;;;;18.30;7.60;;;;;;;-4.53;75.45;99352.34;105128;1271;75507;-23
2022/01/25 12:58:58;;;;;;;;;;;;;;;-3.92;74.50;99346.08;105130;1271;75950;-23
2022/01/25 13:01:27;;;;;;;15.70;7.50;;;;;;;-3.07;71.89;99344.48;105165;1271;73681;-24
2022/01/25 13:03:58;;;;;;;17.60;7.70;;;;;;;-2.89;69.98;99341.72;104880;1270;61328;-23
2022/01/25 13:06:29;;;;;;;24.20;12.30;;;;;;;-3.06;70.51;99341.92;105103;1271;61028;-23
2022/01/25 13:09:32;;;;;;;17.10;9.90;;;;;;;-3.29;71.36;99335.92;105100;1271;75813;-23
2022/01/25 13:17:13;;;;;;;14.50;8.50;;;;;;;-4.00;74.34;99333.85;105307;1271;60984;-23
2022/01/25 13:20:09;;;;;;;22.40;9.60;;;;;;;-4.10;74.95;99332.99;105038;1271;176581;-23
2022/01/25 13:22:41;;;;;;;13.00;7.80;;;;;;;-4.24;75.38;99331.55;105140;1271;74636;-23